RYR7DK LIME-LGZA
Flight info
| Callsign | RYR7DK |
|---|---|
| Flight time | N/A |
| Altitude | 36000 |
| Route | LOGDI DCT EKDIR DCT LOMED DCT PES DCT RUTOM UM601 LASKO |
| Aircraft | B738/M-SDE2E3FGHIRWXY/LB1 |
Departure
| Time | 2026-05-05 08:51 |
|---|---|
| Airport | Il Caravaggio International Airport (LIME) |
Arrival
| Time | N/A |
|---|---|
| Airport | Zakynthos International Airport Dionysios Solomos (LGZA) |
| Time | Latitude | Longitude | Altitude | Speed | Heading |
|---|---|---|---|---|---|
| 2026-05-05 08:36 | 45.66593 | 9.70394 | 780 ft | 0 kts | 194° |
| 2026-05-05 08:45 | 45.66570 | 9.70386 | 780 ft | 5 kts | 183° |
| 2026-05-05 08:45 | 45.66572 | 9.70422 | 780 ft | 5 kts | 27° |
| 2026-05-05 08:45 | 45.66609 | 9.70437 | 779 ft | 7 kts | 14° |
| 2026-05-05 08:46 | 45.66651 | 9.70491 | 778 ft | 11 kts | 80° |
| 2026-05-05 08:46 | 45.66627 | 9.70631 | 777 ft | 18 kts | 104° |
| 2026-05-05 08:46 | 45.66592 | 9.70822 | 776 ft | 22 kts | 105° |
| 2026-05-05 08:46 | 45.66551 | 9.71035 | 774 ft | 22 kts | 105° |
| 2026-05-05 08:47 | 45.66500 | 9.71237 | 772 ft | 21 kts | 109° |
| 2026-05-05 08:47 | 45.66462 | 9.71438 | 770 ft | 21 kts | 104° |
| 2026-05-05 08:47 | 45.66444 | 9.71638 | 768 ft | 20 kts | 79° |
| 2026-05-05 08:47 | 45.66473 | 9.71826 | 766 ft | 19 kts | 92° |
| 2026-05-05 08:48 | 45.66446 | 9.72011 | 764 ft | 19 kts | 104° |
| 2026-05-05 08:48 | 45.66414 | 9.72191 | 763 ft | 18 kts | 104° |
| 2026-05-05 08:48 | 45.66383 | 9.72364 | 762 ft | 18 kts | 104° |
| 2026-05-05 08:48 | 45.66383 | 9.72515 | 762 ft | 10 kts | 80° |
| 2026-05-05 08:49 | 45.66408 | 9.72586 | 761 ft | 8 kts | 24° |
| 2026-05-05 08:49 | 45.66442 | 9.72537 | 760 ft | 8 kts | 282° |
| 2026-05-05 08:49 | 45.66455 | 9.72465 | 761 ft | 2 kts | 284° |
| 2026-05-05 08:49 | 45.66456 | 9.72463 | 761 ft | 0 kts | 284° |
| 2026-05-05 08:50 | 45.66462 | 9.72427 | 761 ft | 17 kts | 284° |
| 2026-05-05 08:50 | 45.66567 | 9.71864 | 767 ft | 99 kts | 285° |
| 2026-05-05 08:50 | 45.66825 | 9.70571 | 793 ft | 166 kts | 291° |
| 2026-05-05 08:51 | 45.67184 | 9.68918 | 1479 ft | 179 kts | 280° |
| 2026-05-05 08:51 | 45.67037 | 9.67091 | 2183 ft | 197 kts | 241° |
| 2026-05-05 08:51 | 45.66129 | 9.65509 | 2844 ft | 210 kts | 221° |
| 2026-05-05 08:51 | 45.65068 | 9.64071 | 3681 ft | 212 kts | 221° |
| 2026-05-05 08:52 | 45.64050 | 9.62551 | 4375 ft | 216 kts | 223° |
| 2026-05-05 08:52 | 45.62982 | 9.60941 | 5078 ft | 228 kts | 222° |
| 2026-05-05 08:52 | 45.61847 | 9.59344 | 6027 ft | 226 kts | 211° |
| 2026-05-05 08:52 | 45.60368 | 9.58686 | 6917 ft | 227 kts | 173° |
| 2026-05-05 08:53 | 45.58847 | 9.59422 | 7612 ft | 239 kts | 154° |
| 2026-05-05 08:53 | 45.57315 | 9.60502 | 8253 ft | 262 kts | 154° |
| 2026-05-05 08:53 | 45.55600 | 9.61722 | 8938 ft | 281 kts | 155° |
| 2026-05-05 08:53 | 45.53839 | 9.62974 | 9763 ft | 286 kts | 156° |
| 2026-05-05 08:54 | 45.52052 | 9.64239 | 10129 ft | 289 kts | 157° |
| 2026-05-05 08:54 | 45.50199 | 9.65539 | 10396 ft | 311 kts | 157° |
| 2026-05-05 08:54 | 45.48175 | 9.66953 | 10858 ft | 326 kts | 157° |
| 2026-05-05 08:54 | 45.46135 | 9.68376 | 11420 ft | 336 kts | 157° |
| 2026-05-05 08:55 | 45.44011 | 9.69855 | 12144 ft | 341 kts | 157° |
| 2026-05-05 08:55 | 45.41833 | 9.71371 | 12929 ft | 345 kts | 157° |
| 2026-05-05 08:55 | 45.39650 | 9.72886 | 13559 ft | 354 kts | 158° |
| 2026-05-05 08:55 | 45.37402 | 9.74443 | 14177 ft | 360 kts | 158° |
| 2026-05-05 08:56 | 45.35165 | 9.75991 | 14863 ft | 363 kts | 157° |
| 2026-05-05 08:56 | 45.32862 | 9.77585 | 15594 ft | 365 kts | 158° |
| 2026-05-05 08:56 | 45.30597 | 9.79150 | 16274 ft | 368 kts | 158° |
| 2026-05-05 08:56 | 45.28274 | 9.80753 | 16942 ft | 371 kts | 158° |
| 2026-05-05 08:57 | 45.25938 | 9.82362 | 17605 ft | 375 kts | 158° |
| 2026-05-05 08:57 | 45.23581 | 9.83984 | 18290 ft | 378 kts | 158° |
| 2026-05-05 08:57 | 45.21229 | 9.85602 | 18875 ft | 380 kts | 157° |
| 2026-05-05 08:57 | 45.18839 | 9.87245 | 19484 ft | 382 kts | 157° |
| 2026-05-05 08:58 | 45.16440 | 9.88892 | 20069 ft | 384 kts | 157° |
| 2026-05-05 08:58 | 45.14015 | 9.90555 | 20646 ft | 387 kts | 157° |
| 2026-05-05 08:58 | 45.11581 | 9.92222 | 21190 ft | 390 kts | 157° |
| 2026-05-05 08:58 | 45.09127 | 9.93903 | 21745 ft | 393 kts | 157° |
| 2026-05-05 08:59 | 45.06660 | 9.95590 | 22281 ft | 395 kts | 157° |
| 2026-05-05 08:59 | 45.04161 | 9.97297 | 22830 ft | 398 kts | 157° |
| 2026-05-05 08:59 | 45.01654 | 9.99008 | 23350 ft | 401 kts | 157° |
| 2026-05-05 08:59 | 44.99133 | 10.00727 | 23804 ft | 403 kts | 157° |
| 2026-05-05 09:00 | 44.96631 | 10.02432 | 24238 ft | 406 kts | 156° |
| 2026-05-05 09:00 | 44.94068 | 10.04175 | 24726 ft | 409 kts | 156° |
| 2026-05-05 09:00 | 44.91490 | 10.05928 | 25157 ft | 413 kts | 156° |
| 2026-05-05 09:00 | 44.88887 | 10.07696 | 25579 ft | 415 kts | 156° |
| 2026-05-05 09:01 | 44.86303 | 10.09450 | 25976 ft | 417 kts | 156° |
| 2026-05-05 09:01 | 44.83685 | 10.11226 | 26390 ft | 418 kts | 156° |
| 2026-05-05 09:01 | 44.81067 | 10.12999 | 26962 ft | 416 kts | 156° |
| 2026-05-05 09:01 | 44.78449 | 10.14772 | 27591 ft | 412 kts | 157° |
| 2026-05-05 09:02 | 44.75874 | 10.16513 | 28135 ft | 411 kts | 157° |
| 2026-05-05 09:02 | 44.73322 | 10.18235 | 28592 ft | 411 kts | 157° |
| 2026-05-05 09:02 | 44.70761 | 10.20106 | 28997 ft | 415 kts | 151° |
| 2026-05-05 09:02 | 44.68381 | 10.22425 | 29454 ft | 416 kts | 147° |
| 2026-05-05 09:03 | 44.66047 | 10.24832 | 29976 ft | 416 kts | 146° |
| 2026-05-05 09:03 | 44.63727 | 10.27242 | 30377 ft | 415 kts | 147° |
| 2026-05-05 09:03 | 44.61390 | 10.29661 | 30713 ft | 417 kts | 147° |
| 2026-05-05 09:03 | 44.59066 | 10.32051 | 31053 ft | 418 kts | 147° |
| 2026-05-05 09:04 | 44.56710 | 10.34462 | 31458 ft | 418 kts | 148° |
| 2026-05-05 09:04 | 44.54350 | 10.36866 | 31847 ft | 419 kts | 148° |
| 2026-05-05 09:04 | 44.51986 | 10.39268 | 32253 ft | 419 kts | 148° |
| 2026-05-05 09:04 | 44.49625 | 10.41661 | 32682 ft | 418 kts | 148° |
| 2026-05-05 09:05 | 44.47267 | 10.44050 | 33022 ft | 419 kts | 148° |
| 2026-05-05 09:05 | 44.44901 | 10.46443 | 33368 ft | 419 kts | 148° |
| 2026-05-05 09:05 | 44.42533 | 10.48836 | 33725 ft | 419 kts | 149° |
| 2026-05-05 09:05 | 44.40167 | 10.51225 | 34080 ft | 419 kts | 149° |
| 2026-05-05 09:06 | 44.37829 | 10.53584 | 34345 ft | 420 kts | 149° |
| 2026-05-05 09:06 | 44.35456 | 10.55976 | 34573 ft | 422 kts | 149° |
| 2026-05-05 09:06 | 44.33053 | 10.58393 | 34601 ft | 428 kts | 149° |
| 2026-05-05 09:07 | 44.28138 | 10.63333 | 34712 ft | 440 kts | 149° |
| 2026-05-05 09:07 | 44.23123 | 10.68366 | 34804 ft | 451 kts | 149° |
| 2026-05-05 09:08 | 44.19044 | 10.73153 | 34854 ft | 468 kts | 136° |
| 2026-05-05 09:08 | 44.16226 | 10.77782 | 34979 ft | 474 kts | 133° |
| 2026-05-05 09:08 | 44.14138 | 10.81341 | 35132 ft | 476 kts | 133° |
| 2026-05-05 09:08 | 44.12030 | 10.84917 | 35380 ft | 475 kts | 134° |
| 2026-05-05 09:09 | 44.09921 | 10.88442 | 35636 ft | 474 kts | 134° |
| 2026-05-05 09:09 | 44.08513 | 10.90770 | 35785 ft | 474 kts | 135° |
| 2026-05-05 09:09 | 44.06378 | 10.94277 | 35974 ft | 475 kts | 135° |
| 2026-05-05 09:10 | 44.02128 | 11.01345 | 36011 ft | 479 kts | 130° |
| 2026-05-05 09:10 | 43.98392 | 11.09004 | 35999 ft | 481 kts | 127° |
| 2026-05-05 09:11 | 43.94825 | 11.16703 | 36004 ft | 480 kts | 127° |